createdAt,value
2023-02-18T00:02:23.018Z,21.67
2023-02-18T00:04:49.632Z,27.02
2023-02-18T00:07:16.416Z,26.00
2023-02-18T00:09:43.028Z,21.52
2023-02-18T00:12:09.556Z,22.60
2023-02-18T00:14:36.087Z,28.55
2023-02-18T00:17:02.714Z,26.48
2023-02-18T00:19:29.283Z,28.83
2023-02-18T00:21:56.033Z,27.20
2023-02-18T00:24:22.740Z,27.63
2023-02-18T00:26:52.965Z,26.25
2023-02-18T00:29:20.240Z,31.52
2023-02-18T00:31:48.397Z,22.63
2023-02-18T00:34:15.213Z,22.40
2023-02-18T00:36:42.302Z,23.42
2023-02-18T00:39:10.915Z,28.80
2023-02-18T00:41:39.471Z,23.88
2023-02-18T00:44:06.594Z,26.75
2023-02-18T00:46:33.674Z,25.17
2023-02-18T00:49:01.146Z,24.60
2023-02-18T00:51:27.655Z,25.92
2023-02-18T00:53:54.596Z,22.90
2023-02-18T00:56:21.625Z,21.10
2023-02-18T00:58:48.776Z,25.92
2023-02-18T01:01:15.634Z,22.48
2023-02-18T01:03:43.085Z,26.08
2023-02-18T01:06:10.724Z,25.65
2023-02-18T01:08:38.172Z,23.25
2023-02-18T01:11:06.983Z,22.13
2023-02-18T01:13:33.804Z,26.55
2023-02-18T01:16:00.425Z,17.83
2023-02-18T01:18:29.862Z,23.88
2023-02-18T01:20:56.474Z,20.98
2023-02-18T01:23:23.794Z,21.67
2023-02-18T01:25:50.436Z,22.63
2023-02-18T01:28:17.027Z,21.13
2023-02-18T01:30:43.654Z,20.90
2023-02-18T01:33:10.717Z,17.52
2023-02-18T01:35:41.053Z,18.02
2023-02-18T01:38:09.313Z,19.42
2023-02-18T01:40:36.387Z,20.30
2023-02-18T01:43:03.239Z,21.88
2023-02-18T01:45:37.187Z,17.20
2023-02-18T01:48:07.373Z,22.17
2023-02-18T01:50:46.108Z,14.40
2023-02-18T01:53:15.523Z,18.75
2023-02-18T01:55:42.276Z,15.43
2023-02-18T01:58:08.899Z,16.33
2023-02-18T02:00:36.948Z,16.55
2023-02-18T02:03:03.685Z,16.55
2023-02-18T02:05:32.502Z,16.52
2023-02-18T02:07:59.725Z,14.98
2023-02-18T02:10:54.544Z,14.18
2023-02-18T02:13:35.115Z,15.15
2023-02-18T02:16:13.020Z,17.23
2023-02-18T02:19:02.977Z,17.70
2023-02-18T02:22:01.322Z,14.30
2023-02-18T02:24:57.685Z,17.05
2023-02-18T02:27:48.537Z,15.00
2023-02-18T02:30:36.165Z,19.00
2023-02-18T02:33:39.681Z,17.73
2023-02-18T02:36:12.877Z,16.92
2023-02-18T02:39:14.491Z,18.75
2023-02-18T02:44:22.059Z,21.00
2023-02-18T02:46:52.512Z,17.08
2023-02-18T02:49:21.300Z,19.10
2023-02-18T02:51:52.438Z,23.73
2023-02-18T02:54:24.878Z,19.88
2023-02-18T02:57:07.473Z,25.42
2023-02-18T02:59:38.714Z,23.23
2023-02-18T03:02:26.514Z,26.80
2023-02-18T03:05:20.577Z,26.00
2023-02-18T03:08:00.177Z,27.65
2023-02-18T03:10:45.513Z,29.67
2023-02-18T03:13:22.372Z,35.75
2023-02-18T03:15:56.550Z,31.55
2023-02-18T03:18:36.852Z,28.65
2023-02-18T03:21:10.958Z,29.30
2023-02-18T03:23:44.883Z,32.00
2023-02-18T03:26:16.246Z,30.48
2023-02-18T03:28:45.343Z,28.63
2023-02-18T03:31:18.712Z,37.58
2023-02-18T03:34:02.511Z,32.25
2023-02-18T03:36:30.017Z,31.13
2023-02-18T03:39:00.358Z,30.70
2023-02-18T03:41:27.238Z,27.13
2023-02-18T03:43:56.327Z,24.58
2023-02-18T03:46:23.180Z,24.58
2023-02-18T03:48:49.818Z,25.25
2023-02-18T03:51:16.460Z,21.27
2023-02-18T03:53:43.057Z,21.60
2023-02-18T03:56:10.785Z,23.38
2023-02-18T03:58:37.463Z,22.13
2023-02-18T04:01:04.569Z,19.77
2023-02-18T04:03:31.170Z,17.80
2023-02-18T04:05:57.726Z,22.48
2023-02-18T04:08:24.256Z,18.52
2023-02-18T04:10:50.843Z,14.32
2023-02-18T04:13:17.951Z,14.77
2023-02-18T04:15:45.183Z,11.60
2023-02-18T04:18:11.808Z,11.10
2023-02-18T04:20:38.364Z,11.30
2023-02-18T04:23:05.352Z,10.13
2023-02-18T04:25:32.023Z,7.70
2023-02-18T04:27:58.962Z,8.00
2023-02-18T04:30:25.922Z,7.88
2023-02-18T04:32:52.755Z,5.38
2023-02-18T04:35:19.344Z,4.45
2023-02-18T04:37:48.305Z,7.28
2023-02-18T04:40:15.110Z,5.80
2023-02-18T04:42:41.966Z,6.68
2023-02-18T04:45:09.170Z,4.20
2023-02-18T04:47:35.781Z,5.68
2023-02-18T04:50:02.339Z,9.77
2023-02-18T04:52:29.695Z,5.85
2023-02-18T04:54:56.298Z,5.00
2023-02-18T04:57:22.863Z,5.32
2023-02-18T04:59:49.459Z,7.13
2023-02-18T05:02:16.361Z,8.18
2023-02-18T05:04:43.016Z,4.63
2023-02-18T05:07:10.106Z,9.10
2023-02-18T05:09:36.704Z,5.60
2023-02-18T05:12:03.531Z,5.43
2023-02-18T05:14:30.196Z,5.20
2023-02-18T05:16:56.744Z,6.85
2023-02-18T05:19:23.242Z,7.78
2023-02-18T05:21:49.722Z,5.75
2023-02-18T05:24:16.266Z,7.70
2023-02-18T05:26:43.034Z,6.93
2023-02-18T05:29:09.784Z,6.63
2023-02-18T05:31:38.452Z,9.27
2023-02-18T05:34:05.141Z,8.63
2023-02-18T05:36:31.818Z,13.05
2023-02-18T05:38:58.448Z,6.47
2023-02-18T05:41:25.141Z,7.75
2023-02-18T05:44:10.191Z,6.45
2023-02-18T05:46:36.823Z,4.72
2023-02-18T05:49:03.425Z,7.65
2023-02-18T05:51:30.267Z,10.98
2023-02-18T05:53:57.124Z,5.55
2023-02-18T05:56:23.684Z,6.05
2023-02-18T05:58:50.256Z,7.88
2023-02-18T06:01:17.098Z,6.93
2023-02-18T06:03:43.685Z,8.90
2023-02-18T06:06:39.024Z,5.85
2023-02-18T06:09:06.888Z,7.40
2023-02-18T06:11:34.786Z,6.18
2023-02-18T06:14:01.802Z,13.40
2023-02-18T06:16:29.269Z,12.30
2023-02-18T06:18:57.249Z,6.85
2023-02-18T06:21:24.500Z,8.90
2023-02-18T06:23:51.397Z,8.52
2023-02-18T06:26:18.267Z,10.25
2023-02-18T06:28:44.935Z,9.48
2023-02-18T06:31:11.760Z,11.32
2023-02-18T06:33:38.655Z,17.60
2023-02-18T06:36:08.441Z,9.02
2023-02-18T06:38:36.230Z,13.75
2023-02-18T06:41:04.494Z,8.98
2023-02-18T06:43:31.351Z,11.55
2023-02-18T06:45:59.597Z,7.78
2023-02-18T06:48:26.688Z,7.50
2023-02-18T06:50:53.466Z,8.52
2023-02-18T06:53:20.391Z,8.93
2023-02-18T06:55:47.663Z,6.75
2023-02-18T06:58:15.184Z,6.28
2023-02-18T07:00:43.489Z,8.68
2023-02-18T07:03:14.422Z,6.13
2023-02-18T07:05:43.647Z,6.38
2023-02-18T07:08:11.844Z,5.40
2023-02-18T07:10:39.617Z,5.47
2023-02-18T07:13:08.375Z,3.75
2023-02-18T07:15:37.282Z,3.97
2023-02-18T07:18:05.293Z,4.28
2023-02-18T07:20:33.114Z,4.95
2023-02-18T07:22:59.999Z,3.10
2023-02-18T07:25:26.774Z,2.75
2023-02-18T07:27:53.790Z,4.05
2023-02-18T07:30:21.045Z,3.72
2023-02-18T07:32:48.932Z,8.52
2023-02-18T07:35:18.038Z,3.75
2023-02-18T07:37:47.431Z,3.05
2023-02-18T07:40:22.883Z,3.40
2023-02-18T07:42:49.732Z,4.47
2023-02-18T07:45:20.381Z,2.78
2023-02-18T07:47:47.616Z,4.75
2023-02-18T07:50:14.468Z,3.92
2023-02-18T07:52:41.274Z,6.18
2023-02-18T07:55:08.631Z,3.67
2023-02-18T07:57:55.324Z,3.85
2023-02-18T08:00:22.236Z,3.42
2023-02-18T08:02:48.906Z,3.42
2023-02-18T08:05:15.641Z,6.40
2023-02-18T08:07:42.459Z,4.40
2023-02-18T08:10:09.366Z,7.95
2023-02-18T08:12:36.079Z,4.45
2023-02-18T08:15:05.595Z,5.82
2023-02-18T08:17:32.699Z,9.20
2023-02-18T08:19:59.356Z,12.80
2023-02-18T08:22:26.252Z,8.82
2023-02-18T08:24:56.238Z,8.32
2023-02-18T08:27:26.222Z,5.85
2023-02-18T08:29:52.939Z,14.10
2023-02-18T08:32:19.879Z,11.73
2023-02-18T08:34:46.748Z,15.02
2023-02-18T08:37:13.901Z,10.55
2023-02-18T08:39:40.928Z,11.73
2023-02-18T08:42:07.853Z,8.63
2023-02-18T08:44:34.857Z,16.30
2023-02-18T08:47:02.472Z,13.38
2023-02-18T08:49:30.396Z,20.20
2023-02-18T08:51:57.464Z,18.23
2023-02-18T08:54:24.860Z,10.25
2023-02-18T08:56:56.419Z,11.00
2023-02-18T08:59:23.973Z,12.13
2023-02-18T09:01:50.876Z,6.50
2023-02-18T09:04:18.419Z,12.93
2023-02-18T09:06:46.943Z,20.00
2023-02-18T09:09:14.855Z,10.68
2023-02-18T09:11:41.628Z,11.07
2023-02-18T09:19:20.869Z,8.45
2023-02-18T09:21:48.557Z,12.07
2023-02-18T09:24:15.797Z,17.80
2023-02-18T09:26:43.647Z,6.57
2023-02-18T09:29:12.120Z,17.17
2023-02-18T09:31:40.129Z,16.38
2023-02-18T09:34:11.384Z,11.60
2023-02-18T09:36:39.465Z,13.32
2023-02-18T09:39:09.596Z,21.20
2023-02-18T09:41:47.161Z,18.83
2023-02-18T09:44:38.544Z,11.50
2023-02-18T09:47:09.767Z,19.67
2023-02-18T09:49:40.795Z,11.63
2023-02-18T09:52:16.584Z,12.57
2023-02-18T09:54:45.059Z,11.15
2023-02-18T09:57:41.820Z,12.90
2023-02-18T10:00:33.903Z,8.55
2023-02-18T10:03:11.907Z,12.48
2023-02-18T10:05:42.022Z,10.63
2023-02-18T10:08:29.467Z,15.95
2023-02-18T10:10:57.758Z,13.18
2023-02-18T10:13:27.825Z,17.92
2023-02-18T10:15:55.531Z,9.52
2023-02-18T10:18:32.216Z,10.40
2023-02-18T10:21:09.625Z,9.10
2023-02-18T10:23:40.593Z,9.90
2023-02-18T10:26:12.809Z,12.45
2023-02-18T10:28:40.252Z,13.10
2023-02-18T10:31:12.697Z,13.75
2023-02-18T10:33:46.936Z,11.48
2023-02-18T10:36:32.496Z,15.48
2023-02-18T10:39:03.979Z,10.05
2023-02-18T10:41:41.761Z,7.75
2023-02-18T10:44:18.050Z,19.30
2023-02-18T10:47:03.366Z,9.60
2023-02-18T10:49:33.408Z,17.85
2023-02-18T10:52:03.023Z,12.90
2023-02-18T10:54:57.859Z,12.13
2023-02-18T10:57:25.291Z,14.50
2023-02-18T10:59:59.683Z,14.88
2023-02-18T11:02:35.840Z,12.18
2023-02-18T11:05:12.856Z,14.50
2023-02-18T11:07:39.667Z,16.23
2023-02-18T11:10:16.608Z,9.88
2023-02-18T11:12:46.898Z,12.95
2023-02-18T11:15:14.170Z,20.40
2023-02-18T11:17:42.866Z,11.65
2023-02-18T11:20:32.397Z,14.55
2023-02-18T11:26:02.045Z,11.98
2023-02-18T11:28:48.310Z,17.75
2023-02-18T11:31:23.478Z,9.45
2023-02-18T11:33:57.654Z,12.90
2023-02-18T11:36:33.052Z,12.50
2023-02-18T11:39:04.866Z,14.43
2023-02-18T11:41:38.513Z,10.80
2023-02-18T11:44:09.009Z,17.60
2023-02-18T11:46:35.772Z,12.40
2023-02-18T11:49:21.762Z,13.88
2023-02-18T11:51:49.602Z,14.80
2023-02-18T11:54:27.902Z,13.80
2023-02-18T11:56:56.417Z,15.30
2023-02-18T11:59:23.391Z,9.60
2023-02-18T12:02:12.820Z,14.00
2023-02-18T12:04:43.967Z,16.38
2023-02-18T12:07:20.975Z,7.85
2023-02-18T12:09:52.104Z,14.10
2023-02-18T12:12:28.102Z,9.05
2023-02-18T12:14:55.972Z,12.30
2023-02-18T12:17:25.645Z,13.82
2023-02-18T12:20:31.732Z,10.43
2023-02-18T12:24:06.382Z,19.25
2023-02-18T12:26:56.477Z,21.52
2023-02-18T12:29:35.988Z,11.45
2023-02-18T12:32:24.617Z,10.40
2023-02-18T12:35:08.393Z,12.93
2023-02-18T12:37:50.186Z,17.10
2023-02-18T12:40:32.125Z,9.63
2023-02-18T12:43:20.121Z,11.55
2023-02-18T12:46:08.107Z,9.57
2023-02-18T12:48:56.368Z,13.38
2023-02-18T12:54:36.613Z,11.13
2023-02-18T12:57:18.142Z,13.40
2023-02-18T13:00:10.024Z,10.68
2023-02-18T13:03:21.501Z,14.82
2023-02-18T13:06:06.138Z,10.88
2023-02-18T13:08:46.914Z,12.07
2023-02-18T13:11:25.637Z,10.88
2023-02-18T13:14:01.361Z,14.77
2023-02-18T13:16:28.643Z,12.68
2023-02-18T13:19:20.247Z,15.65
2023-02-18T13:21:49.878Z,17.73
2023-02-18T13:24:43.860Z,11.90
2023-02-18T13:27:37.096Z,14.63
2023-02-18T13:30:43.936Z,15.48
2023-02-18T13:33:36.561Z,18.60
2023-02-18T13:36:12.080Z,13.52
2023-02-18T13:39:01.948Z,14.27
2023-02-18T13:41:28.794Z,10.90
2023-02-18T13:43:55.736Z,16.00
2023-02-18T13:46:24.346Z,16.02
2023-02-18T13:49:11.446Z,16.33
2023-02-18T13:51:48.642Z,16.75
2023-02-18T13:54:23.361Z,16.70
2023-02-18T13:57:04.837Z,16.98
2023-02-18T13:59:55.627Z,16.40
2023-02-18T14:02:23.299Z,19.35
2023-02-18T14:05:18.894Z,21.50
2023-02-18T14:07:49.781Z,23.85
2023-02-18T14:10:16.499Z,22.13
2023-02-18T14:12:55.975Z,25.58
2023-02-18T14:15:23.187Z,25.20
2023-02-18T14:17:58.562Z,27.40
2023-02-18T14:20:36.990Z,33.65
2023-02-18T14:23:38.377Z,23.73
2023-02-18T14:26:14.094Z,26.35
2023-02-18T14:28:55.160Z,21.92
2023-02-18T14:31:35.839Z,23.88
2023-02-18T14:34:17.341Z,20.38
2023-02-18T14:39:52.091Z,28.10
2023-02-18T14:42:36.579Z,26.70
2023-02-18T14:45:05.263Z,19.77
2023-02-18T14:48:03.799Z,24.33
2023-02-18T14:50:32.298Z,23.92
2023-02-18T14:53:03.641Z,22.38
2023-02-18T14:58:13.868Z,21.63
2023-02-18T15:00:44.544Z,18.50
2023-02-18T15:03:16.750Z,21.17
2023-02-18T15:05:44.814Z,23.92
2023-02-18T15:08:25.851Z,18.20
2023-02-18T15:11:05.246Z,17.98
2023-02-18T15:13:34.885Z,17.60
2023-02-18T15:16:07.142Z,13.75
2023-02-18T15:18:37.249Z,20.00
2023-02-18T15:21:06.490Z,20.48
2023-02-18T15:23:36.239Z,16.45
2023-02-18T15:26:03.122Z,13.00
2023-02-18T15:28:32.624Z,15.77
2023-02-18T15:31:00.813Z,24.02
2023-02-18T15:33:28.028Z,13.70
2023-02-18T15:36:13.284Z,16.30
2023-02-18T15:38:42.836Z,21.20
2023-02-18T15:41:12.073Z,17.25
2023-02-18T15:43:38.650Z,17.38
2023-02-18T15:46:12.916Z,17.58
2023-02-18T15:48:47.419Z,21.88
2023-02-18T15:51:18.960Z,19.08
2023-02-18T15:53:48.874Z,19.13
2023-02-18T15:56:30.695Z,22.25
2023-02-18T15:59:09.626Z,22.13
2023-02-18T16:01:36.493Z,18.55
2023-02-18T16:04:03.248Z,23.58
2023-02-18T16:06:31.691Z,19.70
2023-02-18T16:09:17.166Z,27.48
2023-02-18T16:11:49.044Z,16.58
2023-02-18T16:14:30.501Z,20.92
2023-02-18T16:17:05.983Z,17.70
2023-02-18T16:19:33.426Z,22.77
2023-02-18T16:22:06.559Z,25.63
2023-02-18T16:24:40.289Z,15.68
2023-02-18T16:27:15.719Z,17.50
2023-02-18T16:29:43.188Z,21.65
2023-02-18T16:32:09.852Z,22.13
2023-02-18T16:34:37.062Z,16.33
2023-02-18T16:37:24.934Z,24.17
2023-02-18T16:39:54.763Z,23.10
2023-02-18T16:42:21.654Z,19.63
2023-02-18T16:44:49.981Z,18.40
2023-02-18T16:47:17.200Z,20.42
2023-02-18T16:49:50.320Z,22.58
2023-02-18T16:52:18.474Z,17.05
2023-02-18T16:54:47.632Z,18.75
2023-02-18T16:57:14.535Z,25.73
2023-02-18T16:59:41.185Z,25.95
2023-02-18T17:02:17.058Z,21.98
2023-02-18T17:04:43.980Z,21.10
2023-02-18T17:07:11.132Z,22.65
2023-02-18T17:09:37.791Z,19.27
2023-02-18T17:12:05.245Z,19.42
2023-02-18T17:14:31.903Z,22.77
2023-02-18T17:16:58.813Z,26.60
2023-02-18T17:19:26.870Z,19.27
2023-02-18T17:21:54.576Z,18.98
2023-02-18T17:24:21.299Z,16.13
2023-02-18T17:26:47.886Z,19.83
2023-02-18T17:29:14.820Z,20.67
2023-02-18T17:31:44.475Z,17.70
2023-02-18T17:34:16.504Z,16.20
2023-02-18T17:36:45.379Z,15.20
2023-02-18T17:39:17.656Z,21.00
2023-02-18T17:41:45.501Z,19.15
2023-02-18T17:44:16.196Z,16.63
2023-02-18T17:46:43.322Z,19.38
2023-02-18T17:49:09.968Z,11.25
2023-02-18T17:51:38.236Z,16.15
2023-02-18T17:54:18.907Z,15.30
2023-02-18T17:56:45.910Z,15.02
2023-02-18T17:59:12.562Z,20.15
2023-02-18T18:01:39.441Z,19.17
2023-02-18T18:04:12.312Z,16.52
2023-02-18T18:06:38.854Z,16.48
2023-02-18T18:09:05.407Z,17.75
2023-02-18T18:11:32.840Z,17.08
2023-02-18T18:13:59.679Z,23.25
2023-02-18T18:16:27.057Z,18.27
2023-02-18T18:18:53.609Z,22.80
2023-02-18T18:21:24.203Z,22.60
2023-02-18T18:23:51.245Z,18.97
2023-02-18T18:26:17.778Z,20.55
2023-02-18T18:28:44.451Z,26.42
2023-02-18T18:31:15.139Z,25.60
2023-02-18T18:33:43.155Z,24.25
2023-02-18T18:36:10.167Z,23.33
2023-02-18T18:38:36.972Z,26.45
2023-02-18T18:41:03.599Z,24.85
2023-02-18T18:43:33.161Z,23.15
2023-02-18T18:46:00.404Z,29.38
2023-02-18T18:48:27.350Z,25.35
2023-02-18T18:50:54.417Z,29.60
2023-02-18T18:53:23.899Z,26.25
2023-02-18T18:55:52.644Z,25.33
2023-02-18T18:58:20.996Z,29.77
2023-02-18T19:00:58.504Z,26.33
2023-02-18T19:03:27.040Z,33.55
2023-02-18T19:05:54.147Z,31.65
2023-02-18T19:08:21.176Z,33.80
2023-02-18T19:10:55.086Z,33.25
2023-02-18T19:13:27.413Z,26.60
2023-02-18T19:16:04.032Z,31.73
2023-02-18T19:18:33.754Z,31.73
2023-02-18T19:21:04.679Z,36.83
2023-02-18T19:23:32.184Z,37.85
2023-02-18T19:25:59.063Z,31.92
2023-02-18T19:28:26.360Z,31.45
2023-02-18T19:30:52.917Z,33.67
2023-02-18T19:33:19.457Z,40.70
2023-02-18T19:35:46.186Z,37.38
2023-02-18T19:38:15.509Z,30.73
2023-02-18T19:40:43.026Z,28.27
2023-02-18T19:43:09.893Z,27.55
2023-02-18T19:45:42.477Z,32.47
2023-02-18T19:48:09.876Z,41.17
2023-02-18T19:50:36.423Z,49.20
2023-02-18T19:53:03.019Z,28.48
2023-02-18T19:55:29.564Z,36.80
2023-02-18T19:57:56.083Z,34.65
2023-02-18T20:00:22.823Z,38.90
2023-02-18T20:02:50.188Z,36.22
2023-02-18T20:05:17.388Z,34.92
2023-02-18T20:07:46.049Z,36.38
2023-02-18T20:10:17.857Z,41.97
2023-02-18T20:12:44.372Z,31.02
2023-02-18T20:15:11.180Z,39.22
2023-02-18T20:17:39.192Z,41.35
2023-02-18T20:20:06.311Z,37.08
2023-02-18T20:22:32.816Z,31.45
2023-02-18T20:24:59.680Z,30.88
2023-02-18T20:27:26.164Z,31.00
2023-02-18T20:29:52.757Z,44.72
2023-02-18T20:32:19.412Z,36.88
2023-02-18T20:34:46.175Z,33.95
2023-02-18T20:37:12.692Z,37.60
2023-02-18T20:39:39.294Z,38.05
2023-02-18T20:42:15.740Z,34.47
2023-02-18T20:44:43.330Z,30.42
2023-02-18T20:47:09.901Z,49.33
2023-02-18T20:49:36.956Z,35.67
2023-02-18T20:52:04.051Z,47.85
2023-02-18T20:54:30.944Z,41.88
2023-02-18T20:56:57.679Z,43.50
2023-02-18T20:59:25.756Z,35.28
2023-02-18T21:01:52.353Z,39.88
2023-02-18T21:04:20.067Z,36.50
2023-02-18T21:06:47.599Z,41.80
2023-02-18T21:09:15.486Z,46.03
2023-02-18T21:11:42.506Z,43.95
2023-02-18T21:14:09.564Z,38.78
2023-02-18T21:16:38.617Z,35.50
2023-02-18T21:19:11.898Z,39.33
2023-02-18T21:21:38.434Z,34.63
2023-02-18T21:24:05.411Z,39.22
2023-02-18T21:26:32.176Z,32.65
2023-02-18T21:29:01.604Z,30.60
2023-02-18T21:31:36.474Z,37.95
2023-02-18T21:34:04.433Z,32.40
2023-02-18T21:36:32.056Z,35.88
2023-02-18T21:39:01.954Z,32.85
2023-02-18T21:41:29.481Z,28.85
2023-02-18T21:43:56.335Z,33.08
2023-02-18T21:46:28.107Z,30.35
2023-02-18T21:49:05.906Z,29.17
2023-02-18T21:51:56.186Z,23.42
2023-02-18T21:54:33.640Z,27.52
2023-02-18T21:57:02.020Z,32.33
2023-02-18T21:59:33.082Z,33.72
2023-02-18T22:02:02.947Z,32.72
2023-02-18T22:04:30.899Z,26.42
2023-02-18T22:06:58.339Z,30.70
2023-02-18T22:09:25.710Z,36.72
2023-02-18T22:11:52.243Z,32.67
2023-02-18T22:14:18.892Z,34.33
2023-02-18T22:16:45.520Z,28.30
2023-02-18T22:19:13.677Z,34.38
2023-02-18T22:21:41.258Z,34.38
2023-02-18T22:24:09.152Z,33.00
2023-02-18T22:26:35.707Z,38.15
2023-02-18T22:29:02.526Z,32.20
2023-02-18T22:31:32.095Z,30.30
2023-02-18T22:34:01.555Z,31.80
2023-02-18T22:36:29.302Z,29.08
2023-02-18T22:38:58.020Z,32.53
2023-02-18T22:41:25.506Z,31.08
2023-02-18T22:44:00.318Z,34.80
2023-02-18T22:46:28.096Z,29.98
2023-02-18T22:48:55.720Z,29.58
2023-02-18T22:51:25.104Z,27.38
2023-02-18T22:53:54.060Z,30.65
2023-02-18T22:56:21.580Z,31.98
2023-02-18T22:58:49.757Z,27.63
2023-02-18T23:01:20.270Z,33.10
2023-02-18T23:03:47.032Z,27.63
2023-02-18T23:06:13.881Z,27.38
2023-02-18T23:08:40.632Z,28.55
2023-02-18T23:11:10.292Z,24.92
2023-02-18T23:13:37.082Z,28.02
2023-02-18T23:16:06.388Z,25.23
2023-02-18T23:18:34.876Z,28.27
2023-02-18T23:21:21.058Z,30.08
2023-02-18T23:23:54.699Z,29.25
2023-02-18T23:26:23.808Z,31.17
2023-02-18T23:28:51.598Z,28.70
2023-02-18T23:31:23.988Z,27.73
2023-02-18T23:33:57.848Z,32.22
2023-02-18T23:36:27.092Z,27.17
2023-02-18T23:38:58.264Z,31.42
2023-02-18T23:43:52.068Z,38.25
2023-02-18T23:46:20.128Z,32.72
2023-02-18T23:48:46.875Z,29.75
2023-02-18T23:51:15.313Z,30.50
2023-02-18T23:53:41.892Z,32.78
2023-02-18T23:56:29.369Z,29.08
2023-02-18T23:59:01.431Z,30.48
